createdAt,value
2018-09-10T00:01:05.252Z,75.28
2018-09-10T00:03:36.066Z,75.18
2018-09-10T00:06:06.167Z,75.83
2018-09-10T00:08:35.799Z,75.45
2018-09-10T00:11:05.472Z,75.98
2018-09-10T00:13:35.138Z,74.61
2018-09-10T00:16:04.788Z,74.41
2018-09-10T00:18:34.415Z,74.41
2018-09-10T00:21:04.257Z,71.81
2018-09-10T00:23:33.904Z,71.33
2018-09-10T00:26:03.947Z,72.38
2018-09-10T00:28:33.704Z,73.88
2018-09-10T00:31:03.336Z,75.43
2018-09-10T00:33:33.077Z,77.35
2018-09-10T00:36:03.192Z,78.03
2018-09-10T00:38:32.866Z,77.41
2018-09-10T00:41:03.084Z,76.79
2018-09-10T00:43:33.175Z,77.42
2018-09-10T00:46:02.840Z,75.43
2018-09-10T00:48:32.462Z,75.64
2018-09-10T00:51:02.395Z,75.07
2018-09-10T00:53:32.026Z,74.03
2018-09-10T00:56:01.680Z,73.90
2018-09-10T00:58:31.367Z,74.29
2018-09-10T01:01:01.258Z,76.04
2018-09-10T01:03:31.046Z,75.76
2018-09-10T01:06:00.734Z,76.77
2018-09-10T01:08:30.346Z,77.56
2018-09-10T01:11:00.020Z,78.72
2018-09-10T01:13:29.693Z,78.10
2018-09-10T01:15:59.373Z,78.07
2018-09-10T01:18:28.981Z,77.69
2018-09-10T01:20:58.871Z,77.49
2018-09-10T01:23:28.572Z,78.11
2018-09-10T01:25:58.566Z,78.22
2018-09-10T01:28:28.232Z,79.48
2018-09-10T01:30:58.142Z,80.75
2018-09-10T01:33:33.900Z,81.13
2018-09-10T01:36:03.857Z,80.82
2018-09-10T02:29:00.157Z,84.74
2018-09-10T02:31:35.571Z,85.56
2018-09-10T02:34:11.002Z,84.87
2018-09-10T02:36:46.607Z,83.69
2018-09-10T02:39:22.125Z,82.88
2018-09-10T02:42:01.021Z,83.16
2018-09-10T02:44:36.675Z,83.54
2018-09-10T02:47:12.028Z,83.03
2018-09-10T02:49:47.607Z,81.44
2018-09-10T02:52:23.176Z,82.17
2018-09-10T02:54:58.832Z,80.42
2018-09-10T02:57:34.259Z,80.85
2018-09-10T03:00:10.420Z,81.66
2018-09-10T03:02:46.097Z,82.44
2018-09-10T03:05:21.559Z,83.71
2018-09-10T03:07:57.254Z,84.07
2018-09-10T03:10:32.666Z,83.28
2018-09-10T03:13:08.330Z,82.60
2018-09-10T03:15:43.953Z,81.59
2018-09-10T03:18:19.880Z,80.01
2018-09-10T03:20:55.432Z,79.59
2018-09-10T03:23:30.860Z,79.71
2018-09-10T03:26:06.467Z,78.79
2018-09-10T03:28:42.040Z,79.01
2018-09-10T03:31:17.585Z,78.04
2018-09-10T03:33:53.004Z,79.44
2018-09-10T03:36:28.451Z,79.82
2018-09-10T03:39:04.207Z,79.94
2018-09-10T03:41:39.927Z,79.18
2018-09-10T03:44:15.263Z,80.82
2018-09-10T03:46:51.348Z,80.97
2018-09-10T03:49:26.709Z,80.72
2018-09-10T03:52:02.146Z,81.29
2018-09-10T03:54:37.700Z,83.00
2018-09-10T03:57:13.588Z,84.59
2018-09-10T03:59:49.051Z,84.61
2018-09-10T04:02:24.659Z,86.37
2018-09-10T04:05:00.592Z,85.17
2018-09-10T04:07:36.116Z,84.35
2018-09-10T04:10:11.529Z,84.08
2018-09-10T04:12:47.176Z,82.62
2018-09-10T04:15:23.079Z,82.34
2018-09-10T04:17:58.935Z,82.91
2018-09-10T04:20:34.324Z,83.46
2018-09-10T04:23:09.991Z,81.92
2018-09-10T04:25:45.592Z,80.49
2018-09-10T04:28:20.999Z,79.80
2018-09-10T04:30:56.711Z,79.78
2018-09-10T04:33:32.852Z,79.57
2018-09-10T04:36:08.575Z,79.38
2018-09-10T04:38:44.017Z,80.53
2018-09-10T04:41:19.329Z,82.52
2018-09-10T04:43:55.426Z,84.76
2018-09-10T04:46:30.838Z,85.74
2018-09-10T04:49:06.665Z,85.69
2018-09-10T04:51:42.184Z,84.00
2018-09-10T04:54:17.824Z,82.38
2018-09-10T04:56:53.430Z,80.80
2018-09-10T04:59:29.568Z,78.39
2018-09-10T05:02:05.320Z,75.79
2018-09-10T05:04:36.053Z,73.22
2018-09-10T05:07:06.872Z,71.27
2018-09-10T05:09:37.560Z,69.42
2018-09-10T05:12:09.128Z,68.64
2018-09-10T05:14:39.561Z,67.55
2018-09-10T05:17:10.106Z,68.14
2018-09-10T05:19:40.554Z,68.04
2018-09-10T05:22:11.127Z,66.50
2018-09-10T05:24:41.748Z,65.50
2018-09-10T05:27:12.634Z,66.18
2018-09-10T05:29:43.012Z,66.06
2018-09-10T05:32:13.918Z,64.47
2018-09-10T05:34:44.333Z,63.88
2018-09-10T05:37:14.724Z,63.36
2018-09-10T05:39:45.514Z,63.36
2018-09-10T05:42:16.010Z,64.58
2018-09-10T05:44:47.650Z,64.43
2018-09-10T05:47:18.537Z,64.50
2018-09-10T05:49:49.438Z,64.40
2018-09-10T05:52:20.037Z,63.13
2018-09-10T05:54:50.488Z,63.64
2018-09-10T05:57:20.942Z,63.68
2018-09-10T05:59:51.437Z,64.44
2018-09-10T06:02:21.799Z,64.31
2018-09-10T06:04:52.252Z,64.36
2018-09-10T06:07:23.282Z,66.42
2018-09-10T06:09:53.872Z,66.48
2018-09-10T06:12:24.253Z,65.77
2018-09-10T06:14:54.753Z,64.22
2018-09-10T06:17:25.439Z,63.54
2018-09-10T06:19:55.822Z,61.88
2018-09-10T06:22:26.157Z,62.04
2018-09-10T06:24:56.771Z,61.48
2018-09-10T06:27:27.264Z,60.97
2018-09-10T06:29:57.685Z,60.36
2018-09-10T06:32:28.043Z,59.38
2018-09-10T06:34:58.415Z,60.31
2018-09-10T06:37:31.849Z,60.98
2018-09-10T06:40:05.267Z,61.83
2018-09-10T06:42:36.076Z,63.19
2018-09-10T06:45:06.534Z,64.62
2018-09-10T06:47:37.989Z,65.05
2018-09-10T06:50:08.883Z,64.95
2018-09-10T06:52:39.843Z,63.32
2018-09-10T06:55:11.770Z,63.28
2018-09-10T06:57:42.947Z,62.27
2018-09-10T07:00:13.887Z,61.94
2018-09-10T07:02:44.805Z,61.25
2018-09-10T07:05:15.338Z,60.87
2018-09-10T07:07:46.123Z,59.46
2018-09-10T07:10:17.089Z,59.13
2018-09-10T07:12:48.055Z,57.50
2018-09-10T07:15:20.050Z,56.38
2018-09-10T07:17:50.709Z,54.86
2018-09-10T07:20:21.320Z,53.75
2018-09-10T07:22:53.629Z,52.20
2018-09-10T07:25:24.079Z,50.75
2018-09-10T07:27:56.075Z,50.52
2018-09-10T07:30:26.525Z,50.42
2018-09-10T07:33:02.178Z,50.96
2018-09-10T07:35:37.727Z,50.70
2018-09-10T07:38:09.353Z,49.51
2018-09-10T07:40:39.920Z,48.83
2018-09-10T07:43:10.490Z,48.11
2018-09-10T07:45:41.428Z,46.85
2018-09-10T07:48:12.147Z,46.57
2018-09-10T07:53:51.774Z,46.06
2018-09-10T07:56:21.348Z,46.48
2018-09-10T07:58:50.918Z,45.17
2018-09-10T08:01:21.277Z,46.55
2018-09-10T08:03:51.451Z,45.59
2018-09-10T08:06:21.124Z,44.04
2018-09-10T08:08:50.733Z,43.89
2018-09-10T08:11:20.302Z,42.82
2018-09-10T08:13:51.101Z,43.47
2018-09-10T08:16:20.659Z,41.41
2018-09-10T08:18:50.212Z,40.21
2018-09-10T08:21:20.047Z,38.47
2018-09-10T08:23:49.649Z,36.35
2018-09-10T08:26:19.912Z,36.29
2018-09-10T08:28:49.508Z,39.83
2018-09-10T08:31:19.747Z,35.77
2018-09-10T08:33:49.295Z,35.91
2018-09-10T08:36:18.881Z,35.93
2018-09-10T08:38:51.796Z,35.28
2018-09-10T08:41:22.018Z,35.47
2018-09-10T08:43:51.599Z,35.84
2018-09-10T08:46:21.157Z,35.44
2018-09-10T08:48:51.928Z,35.18
2018-09-10T08:51:21.497Z,36.18
2018-09-10T08:53:51.085Z,35.44
2018-09-10T08:56:21.822Z,35.18
2018-09-10T08:58:51.963Z,33.41
2018-09-10T09:01:21.509Z,33.52
2018-09-10T09:03:51.459Z,33.61
2018-09-10T09:06:21.056Z,33.04
2018-09-10T09:08:51.341Z,31.17
2018-09-10T09:11:20.969Z,30.17
2018-09-10T09:13:51.889Z,32.24
2018-09-10T09:16:21.738Z,31.76
2018-09-10T09:18:51.319Z,31.32
2018-09-10T09:21:21.546Z,30.16
2018-09-10T09:23:51.085Z,30.66
2018-09-10T09:26:21.282Z,31.25
2018-09-10T09:28:51.481Z,32.01
2018-09-10T09:31:21.271Z,32.75
2018-09-10T09:33:51.011Z,32.83
2018-09-10T09:36:25.745Z,33.46
2018-09-10T09:39:03.587Z,34.09
2018-09-10T09:41:38.441Z,34.39
2018-09-10T09:44:13.319Z,33.56
2018-09-10T09:46:42.948Z,33.48
2018-09-10T09:49:12.756Z,35.17
2018-09-10T09:51:42.569Z,34.27
2018-09-10T09:54:12.353Z,33.71
2018-09-10T09:56:41.938Z,34.99
2018-09-10T09:59:11.762Z,35.17
2018-09-10T10:01:47.263Z,35.30
2018-09-10T10:04:16.966Z,35.90
2018-09-10T10:06:46.765Z,36.50
2018-09-10T10:09:16.321Z,36.26
2018-09-10T10:11:45.957Z,35.13
2018-09-10T10:14:16.456Z,35.03
2018-09-10T10:23:46.886Z,36.41
2018-09-10T10:26:16.453Z,34.63
2018-09-10T10:28:46.005Z,34.56
2018-09-10T10:31:15.599Z,34.34
2018-09-10T10:33:45.189Z,33.78
2018-09-10T10:36:14.744Z,34.92
2018-09-10T10:38:45.637Z,33.90
2018-09-10T10:41:15.286Z,33.84
2018-09-10T10:43:45.005Z,33.41
2018-09-10T10:46:15.835Z,33.97
2018-09-10T10:48:45.427Z,34.28
2018-09-10T10:51:14.990Z,33.51
2018-09-10T10:53:44.614Z,33.28
2018-09-10T10:56:15.571Z,33.33
2018-09-10T10:58:45.422Z,32.88
2018-09-10T11:01:15.210Z,32.59
2018-09-10T11:03:45.467Z,32.07
2018-09-10T11:06:15.130Z,32.76
2018-09-10T11:08:45.429Z,32.74
2018-09-10T11:11:15.946Z,33.12
2018-09-10T11:13:45.538Z,32.66
2018-09-10T11:16:15.106Z,32.36
2018-09-10T11:18:45.452Z,32.83
2018-09-10T11:21:15.245Z,32.25
2018-09-10T11:23:44.885Z,32.95
2018-09-10T11:26:14.505Z,33.29
2018-09-10T11:28:44.052Z,33.24
2018-09-10T11:31:13.629Z,32.21
2018-09-10T11:33:43.231Z,32.78
2018-09-10T11:36:12.978Z,32.15
2018-09-10T11:38:42.520Z,32.25
2018-09-10T11:41:12.116Z,32.07
2018-09-10T11:43:41.749Z,32.26
2018-09-10T11:46:11.912Z,32.23
2018-09-10T11:48:41.563Z,32.14
2018-09-10T11:51:11.112Z,31.57
2018-09-10T11:53:40.822Z,31.81
2018-09-10T11:56:10.441Z,31.85
2018-09-10T11:58:40.060Z,32.74
2018-09-10T12:01:10.247Z,32.31
2018-09-10T12:03:39.820Z,32.29
2018-09-10T12:06:09.375Z,32.08
2018-09-10T12:08:39.207Z,32.27
2018-09-10T12:11:08.816Z,31.32
2018-09-10T12:13:38.467Z,31.80
2018-09-10T12:16:08.141Z,31.26
2018-09-10T12:18:37.807Z,30.95
2018-09-10T12:21:08.090Z,31.84
2018-09-10T12:23:37.634Z,31.71
2018-09-10T12:26:07.209Z,30.24
2018-09-10T12:28:37.143Z,31.37
2018-09-10T12:31:06.715Z,31.27
2018-09-10T12:33:36.388Z,31.17
2018-09-10T12:36:06.007Z,30.09
2018-09-10T12:38:35.730Z,30.93
2018-09-10T12:41:05.424Z,29.88
2018-09-10T12:43:34.961Z,30.64
2018-09-10T12:46:04.975Z,31.43
2018-09-10T12:48:35.218Z,31.60
2018-09-10T12:51:04.769Z,31.45
2018-09-10T12:53:34.370Z,30.86
2018-09-10T12:56:04.017Z,30.80
2018-09-10T12:58:34.315Z,30.71
2018-09-10T13:01:03.902Z,31.32
2018-09-10T13:03:33.509Z,30.52
2018-09-10T13:06:03.243Z,30.29
2018-09-10T13:08:32.825Z,30.52
2018-09-10T13:11:02.537Z,30.18
2018-09-10T13:13:32.119Z,30.06
2018-09-10T13:16:01.716Z,30.00
2018-09-10T13:18:32.012Z,30.49
2018-09-10T13:21:01.612Z,30.08
2018-09-10T13:23:31.250Z,29.82
2018-09-10T13:26:01.251Z,29.67
2018-09-10T13:28:30.832Z,29.96
2018-09-10T13:31:00.410Z,30.18
2018-09-10T13:33:30.011Z,30.18
2018-09-10T13:35:59.789Z,30.48
2018-09-10T13:38:29.392Z,29.77
2018-09-10T13:40:59.209Z,28.73
2018-09-10T13:43:28.801Z,28.19
2018-09-10T13:45:58.513Z,28.94
2018-09-10T13:48:28.165Z,28.16
2018-09-10T13:50:57.731Z,27.13
2018-09-10T13:53:28.529Z,26.60
2018-09-10T13:55:59.300Z,26.65
2018-09-10T13:58:29.977Z,26.19
2018-09-10T14:01:00.748Z,26.34
2018-09-10T14:03:31.356Z,25.38
2018-09-10T14:06:03.285Z,25.44
2018-09-10T14:08:33.977Z,24.55
2018-09-10T14:11:06.507Z,24.77
2018-09-10T14:13:37.302Z,25.16
2018-09-10T14:16:09.061Z,24.25
2018-09-10T14:18:39.728Z,24.94
2018-09-10T14:21:11.218Z,26.29
2018-09-10T14:23:41.937Z,24.93
2018-09-10T14:26:13.374Z,24.42
2018-09-10T14:28:44.612Z,24.57
2018-09-10T14:31:16.543Z,25.60
2018-09-10T14:33:47.227Z,24.80
2018-09-10T14:36:18.061Z,24.77
2018-09-10T14:38:49.052Z,25.03
2018-09-10T14:41:19.733Z,25.87
2018-09-10T14:43:50.585Z,25.29
2018-09-10T14:46:21.321Z,24.16
2018-09-10T14:48:52.295Z,23.50
2018-09-10T14:51:23.030Z,26.77
2018-09-10T14:53:54.077Z,28.13
2018-09-10T14:56:24.767Z,29.10
2018-09-10T14:58:55.438Z,29.65
2018-09-10T15:01:26.204Z,30.72
2018-09-10T15:03:56.859Z,30.26
2018-09-10T15:07:52.859Z,30.41
2018-09-10T15:10:23.542Z,31.38
2018-09-10T15:12:54.296Z,30.51
2018-09-10T15:15:25.017Z,31.38
2018-09-10T15:17:55.814Z,32.05
2018-09-10T15:20:27.280Z,31.45
2018-09-10T15:22:58.005Z,31.03
2018-09-10T15:25:28.825Z,30.38
2018-09-10T15:27:59.516Z,31.57
2018-09-10T15:30:30.610Z,31.36
2018-09-10T15:33:01.341Z,31.13
2018-09-10T15:35:32.028Z,31.92
2018-09-10T15:38:03.141Z,31.29
2018-09-10T15:40:33.899Z,31.96
2018-09-10T15:43:05.769Z,31.88
2018-09-10T15:45:37.137Z,32.03
2018-09-10T15:48:07.855Z,32.44
2018-09-10T15:50:38.538Z,32.07
2018-09-10T15:53:09.228Z,31.77
2018-09-10T15:55:40.208Z,31.76
2018-09-10T15:58:10.979Z,31.58
2018-09-10T16:00:41.709Z,32.87
2018-09-10T16:03:12.447Z,32.47
2018-09-10T16:05:43.084Z,32.63
2018-09-10T16:08:13.933Z,32.80
2018-09-10T16:10:44.609Z,33.46
2018-09-10T16:13:15.344Z,33.87
2018-09-10T16:15:46.002Z,33.59
2018-09-10T16:18:17.013Z,33.26
2018-09-10T16:20:47.734Z,33.49
2018-09-10T16:23:18.396Z,33.55
2018-09-10T16:25:49.330Z,34.36
2018-09-10T16:28:20.231Z,34.30
2018-09-10T16:30:50.876Z,34.93
2018-09-10T16:33:21.703Z,34.66
2018-09-10T16:35:52.354Z,34.79
2018-09-10T16:38:23.837Z,35.26
2018-09-10T16:40:54.467Z,35.80
2018-09-10T16:43:25.496Z,36.20
2018-09-10T16:45:56.137Z,35.64
2018-09-10T16:48:27.474Z,36.90
2018-09-10T16:50:58.912Z,36.64
2018-09-10T16:53:30.639Z,36.62
2018-09-10T16:56:02.316Z,37.54
2018-09-10T16:58:33.006Z,38.57
2018-09-10T17:01:03.667Z,38.76
2018-09-10T17:03:34.473Z,38.12
2018-09-10T17:06:05.644Z,38.87
2018-09-10T17:08:36.558Z,38.98
2018-09-10T17:11:07.238Z,39.52
2018-09-10T17:13:37.967Z,39.38
2018-09-10T17:16:08.645Z,39.75
2018-09-10T17:18:39.916Z,40.25
2018-09-10T17:21:10.565Z,40.24
2018-09-10T17:23:41.245Z,40.25
2018-09-10T17:26:12.977Z,40.82
2018-09-10T17:28:45.727Z,40.72
2018-09-10T17:31:16.463Z,40.91
2018-09-10T17:33:47.335Z,41.73
2018-09-10T17:36:18.265Z,42.19
2018-09-10T17:38:49.057Z,42.04
2018-09-10T17:41:19.802Z,42.52
2018-09-10T17:43:50.914Z,43.12
2018-09-10T17:46:21.555Z,42.97
2018-09-10T17:48:52.770Z,43.29
2018-09-10T17:51:24.248Z,43.22
2018-09-10T17:53:55.107Z,43.28
2018-09-10T17:56:25.810Z,43.25
2018-09-10T17:58:56.552Z,44.67
2018-09-10T18:01:27.305Z,44.46
2018-09-10T18:03:58.986Z,43.73
2018-09-10T18:06:30.432Z,43.15
2018-09-10T18:09:01.139Z,43.38
2018-09-10T18:11:31.804Z,43.33
2018-09-10T18:14:02.502Z,43.88
2018-09-10T18:16:33.361Z,44.74
2018-09-10T18:19:04.088Z,45.82
2018-09-10T18:21:35.469Z,46.04
2018-09-10T18:24:06.304Z,45.52
2018-09-10T18:26:37.028Z,46.32
2018-09-10T18:29:07.711Z,46.86
2018-09-10T18:31:38.349Z,46.79
2018-09-10T18:34:09.420Z,47.55
2018-09-10T18:36:41.254Z,47.56
2018-09-10T18:39:13.337Z,47.96
2018-09-10T18:41:45.100Z,48.13
2018-09-10T18:44:15.794Z,47.43
2018-09-10T18:46:46.829Z,47.67
2018-09-10T18:49:17.579Z,48.22
2018-09-10T18:51:48.533Z,48.84
2018-09-10T18:54:19.228Z,48.43
2018-09-10T18:56:49.865Z,49.22
2018-09-10T18:59:20.680Z,48.63
2018-09-10T19:01:51.341Z,47.94
2018-09-10T19:04:22.129Z,48.30
2018-09-10T19:06:52.792Z,48.58
2018-09-10T19:09:23.486Z,48.89
2018-09-10T19:11:54.111Z,50.21
2018-09-10T19:14:25.061Z,51.09
2018-09-10T19:16:55.779Z,50.74
2018-09-10T19:19:27.355Z,49.69
2018-09-10T19:21:58.613Z,49.12
2018-09-10T19:24:29.284Z,49.82
2018-09-10T19:27:00.027Z,50.15
2018-09-10T19:29:31.341Z,50.39
2018-09-10T19:32:02.001Z,50.25
2018-09-10T19:34:33.017Z,50.67
2018-09-10T19:37:03.717Z,50.78
2018-09-10T19:39:34.474Z,51.70
2018-09-10T19:42:05.153Z,51.77
2018-09-10T19:44:36.570Z,51.04
2018-09-10T19:47:08.268Z,51.38
2018-09-10T19:49:39.374Z,52.13
2018-09-10T19:52:10.022Z,52.16
2018-09-10T19:54:41.805Z,53.23
2018-09-10T19:57:12.461Z,53.89
2018-09-10T19:59:43.191Z,53.80
2018-09-10T20:02:13.855Z,54.88
2018-09-10T20:04:44.603Z,54.22
2018-09-10T20:07:16.511Z,54.51
2018-09-10T20:09:47.302Z,54.10
2018-09-10T20:12:22.578Z,54.35
2018-09-10T20:14:53.287Z,54.93
2018-09-10T20:17:23.961Z,55.00
2018-09-10T20:20:07.270Z,54.22
2018-09-10T20:22:38.151Z,54.01
2018-09-10T20:25:08.885Z,54.14
2018-09-10T20:27:39.773Z,55.09
2018-09-10T20:30:10.582Z,55.45
2018-09-10T20:32:41.747Z,55.50
2018-09-10T20:35:12.753Z,56.95
2018-09-10T20:37:43.548Z,56.76
2018-09-10T20:40:14.246Z,57.70
2018-09-10T20:42:44.959Z,58.22
2018-09-10T20:45:15.666Z,58.74
2018-09-10T20:47:46.309Z,58.55
2018-09-10T20:50:17.324Z,58.55
2018-09-10T20:52:47.995Z,58.52
2018-09-10T20:55:18.761Z,58.81
2018-09-10T20:57:49.595Z,58.90
2018-09-10T21:00:20.262Z,58.60
2018-09-10T21:02:51.129Z,58.85
2018-09-10T21:05:24.716Z,59.44
2018-09-10T21:07:55.397Z,60.09
2018-09-10T21:10:26.672Z,60.90
2018-09-10T21:12:58.234Z,61.38
2018-09-10T21:15:29.537Z,61.44
2018-09-10T21:18:00.202Z,61.08
2018-09-10T21:20:32.283Z,61.73
2018-09-10T21:23:03.424Z,61.49
2018-09-10T21:25:34.163Z,61.64
2018-09-10T21:28:08.045Z,61.77
2018-09-10T21:30:38.708Z,62.41
2018-09-10T21:33:09.355Z,62.21
2018-09-10T21:35:40.531Z,63.01
2018-09-10T21:38:11.788Z,63.36
2018-09-10T21:40:42.428Z,63.11
2018-09-10T21:43:13.137Z,62.91
2018-09-10T21:45:43.800Z,63.14
2018-09-10T21:48:14.497Z,62.79
2018-09-10T21:50:48.639Z,63.60
2018-09-10T21:53:19.269Z,63.78
2018-09-10T21:55:49.931Z,63.96
2018-09-10T21:58:20.741Z,63.39
2018-09-10T22:00:55.917Z,63.96
2018-09-10T22:03:27.078Z,64.22
2018-09-10T22:05:57.836Z,63.89
2018-09-10T22:08:28.502Z,64.63
2018-09-10T22:10:59.239Z,65.36
2018-09-10T22:13:30.082Z,65.90
2018-09-10T22:16:00.762Z,66.70
2018-09-10T22:18:31.421Z,66.30
2018-09-10T22:21:02.378Z,65.88
2018-09-10T22:23:33.625Z,66.61
2018-09-10T22:26:04.297Z,65.86
2018-09-10T22:28:35.010Z,65.67
2018-09-10T22:31:06.808Z,64.67
2018-09-10T22:33:37.834Z,65.60
2018-09-10T22:36:09.368Z,65.89
2018-09-10T22:38:39.989Z,65.74
2018-09-10T22:41:10.658Z,66.67
2018-09-10T22:43:41.332Z,68.07
2018-09-10T22:46:12.050Z,68.26
2018-09-10T22:48:43.901Z,67.52
2018-09-10T22:51:14.635Z,67.41
2018-09-10T22:53:45.290Z,67.58
2018-09-10T22:56:15.974Z,68.83
2018-09-10T22:58:46.739Z,69.23
2018-09-10T23:01:17.416Z,70.49
2018-09-10T23:03:48.111Z,71.99
2018-09-10T23:06:18.801Z,72.71
2018-09-10T23:08:49.691Z,73.71
2018-09-10T23:11:21.124Z,74.13
2018-09-10T23:13:52.209Z,74.22
2018-09-10T23:16:23.011Z,73.78
2018-09-10T23:18:53.843Z,72.73
2018-09-10T23:21:25.701Z,71.92
2018-09-10T23:23:56.376Z,71.87
2018-09-10T23:26:27.053Z,71.87
2018-09-10T23:28:57.779Z,71.52
2018-09-10T23:31:28.456Z,70.30
2018-09-10T23:33:59.074Z,70.16
2018-09-10T23:36:29.804Z,69.64
2018-09-10T23:39:00.457Z,71.45
2018-09-10T23:41:31.729Z,70.87
2018-09-10T23:44:02.369Z,71.13
2018-09-10T23:46:33.057Z,72.67
2018-09-10T23:49:03.760Z,73.12
2018-09-10T23:51:34.794Z,74.13
2018-09-10T23:54:05.466Z,74.80
2018-09-10T23:56:36.151Z,75.09
2018-09-10T23:59:07.255Z,75.20
